Skip to Main Content
SEARCH:
Location Air RH Dwp Precip Type Wind Speed Wind Gust Direction Pavement Temperature Date/Time
Hatem Bridge US 40 E/B 57 71 48 None - 15 mph N 50 - 50 9/25/2016 4:44:00 AM
I-270 AT I-370 56 72 47 None Calm Calm NE 57 - 60 9/25/2016 4:40:00 AM
I-270 AT MD-109 48 100 48 None Calm Calm N 55 - 56 9/25/2016 4:40:00 AM
I-495 AT American Legion Bridge 54 100 54 None Calm Calm NW 58 - 60 9/25/2016 4:40:00 AM
I-68 AT MD-219 50 91 48 None 8 mph 14 mph E 49 - 55 9/25/2016 4:40:00 AM
I-68 AT Savage Mt 50 88 47 None Calm 5 mph E 52 - 52 9/25/2016 4:40:00 AM
I-68 AT Sideling Hill 55 68 45 None Calm 7 mph N 60 - 61 9/25/2016 4:40:00 AM
I-68 AT WV Line 49 100 49 None Calm Calm N 54 - 58 9/25/2016 4:40:00 AM
I-695 AT I-83 49 94 48 None Calm Calm SE 54 - 57 9/25/2016 4:40:00 AM
I-70 AT Fred-Wash Co. 56 59 42 None Calm 8 mph SE - 9/25/2016 4:40:00 AM
I-70 AT I-695 49 95 48 None Calm Calm N 128 - 59 9/25/2016 4:40:00 AM
I-70 AT I-81 51 84 47 None Calm 5 mph N 59 - 59 9/25/2016 4:40:00 AM
I-70 AT MD-27 51 84 46 None Calm Calm NE 54 - 57 9/25/2016 4:40:00 AM
I-70 AT MD-32 49 95 48 None Calm Calm NE 58 - 58 9/25/2016 4:40:00 AM
I-83 AT MD-137 47 100 47 None Calm Calm NW 56 - 56 9/25/2016 4:40:00 AM
I-895 AT I-95 - - - No Data Available - - No Data Available -
I-95 AT I-695 NE 55 72 46 None Calm Calm N 56 - 59 9/25/2016 4:44:00 AM
I-95 AT Patuxent River 55 86 51 None Calm 6 mph N 56 - 59 9/25/2016 4:40:00 AM
I-95 AT Tydings Bridge 53 74 45 None Calm Calm NW 54 - 58 9/25/2016 4:40:00 AM
I-95/495 AT I-295 65 75 57 None Calm 5 mph NE 64 - 68 9/25/2016 4:40:00 AM
I-97 AT MD-100 55 78 48 None Calm 5 mph NE 56 - 58 9/25/2016 4:40:00 AM
I-97 AT MD-32 53 87 50 None 11 mph 12 mph N 58 - 59 9/25/2016 4:40:00 AM
MD 231 at Patuxent River 58 98 57 None Calm 4 mph NW 58 - 63 9/25/2016 4:40:00 AM
MD-135 AT Salt Dome 49 100 49 None 4 mph 8 mph SE 56 - 56 9/25/2016 4:40:00 AM
MD-140 AT MD-97 47 94 45 None Calm Calm NE 54 - 54 9/25/2016 4:40:00 AM
MD-200 EB AT Bonifant Rd 52 92 50 None Calm 4 mph NW 56 - 56 9/25/2016 4:44:00 AM
MD-200 WB AT Muncaster Mill Rd 51 93 49 None Calm Calm N 55 - 55 9/25/2016 4:44:00 AM
MD-213 AT Sassafras River 54 90 52 None Calm Calm N 59 - 59 9/25/2016 4:40:00 AM
MD-24 AT Rock St Park 47 100 47 None Calm Calm N 55 - 55 9/25/2016 4:40:00 AM
MD-30 AT PA Line 51 79 45 None Calm Calm NE 59 - 59 9/25/2016 4:40:00 AM
MD-301 AT MD-305 53 88 49 None Calm 4 mph N 57 - 59 9/25/2016 4:40:00 AM
MD-33 AT Knapps Narrows Drawbridge 62 75 54 None 6 mph 13 mph NE 64 - 64 9/25/2016 4:40:00 AM
MD-344 at MD-224 59 98 59 None Calm Calm N 68 - 68 9/25/2016 4:40:00 AM
MD-4 AT Patuxent River 60 98 59 Rain - - No Data Available 60 - 65 9/25/2016 4:40:00 AM
MD-404 AT Choptank River 55 97 54 None Calm 8 mph NE 55 - 58 9/25/2016 4:40:00 AM
MD-43 AT MD-150 52 96 51 None Calm Calm N 55 - 60 9/25/2016 4:40:00 AM
MD-51 AT Oldtown Salt Dome 48 96 47 None Calm Calm N 63 - 63 9/25/2016 4:40:00 AM
US-1 AT Baltimore / Harford Co. Line 49 97 48 None Calm Calm N 54 - 56 9/25/2016 4:40:00 AM
US-1 AT Conowingo Dam 51 90 48 None Calm Calm N 59 - 59 9/25/2016 4:40:00 AM
US-13 AT US-113 57 98 56 None Calm Calm N 62 - 63 9/25/2016 4:40:00 AM
US-13 AT US-50 56 95 54 None Calm 6 mph N 56 - 77 9/25/2016 4:40:00 AM
US-15 AT MD-140 46 86 42 None Calm Calm NW 52 - 52 9/25/2016 4:40:00 AM
US-301 AT MD-5 57 100 57 None Calm 5 mph N 56 - 64 9/25/2016 4:40:00 AM
US-301 AT Potomac 66 86 62 None Calm 5 mph NE 62 - 67 9/25/2016 4:40:00 AM
US-340 AT MD-180 49 88 46 None Calm Calm N 56 - 56 9/25/2016 4:40:00 AM
US-50 AT Choptank 58 100 58 None 4 mph 7 mph N 59 - 61 9/25/2016 4:40:00 AM
US-50 AT I-95 - - - No Data Available - - No Data Available -
US-50 AT MD-2 58 88 54 None Calm 6 mph N 59 - 61 9/25/2016 4:40:00 AM
US-50 AT MD-331 58 92 56 None Calm 5 mph N 59 - 60 9/25/2016 4:40:00 AM
US-50 AT OC Drawbridge 60 91 57 None 6 mph 8 mph NW 62 - 62 9/25/2016 4:40:00 AM
US-50 AT Table Rock Rd 52 98 51 None 8 mph 12 mph E 57 - 57 9/25/2016 4:40:00 AM
US-50 Kent Narrow Bridge 62 68 51 None 12 mph 21 mph N 59 - 61 9/25/2016 4:40:00 AM
WPL Pier 31 - - - None - - No Data Available 56 - 56 9/25/2016 4:44:00 AM
Location Air RH Dwp Precip Type Wind Speed Wind Gust Direction Pavement Temperature Date/Time